createdAt,value
2019-03-04T00:00:45.815Z,994.59
2019-03-04T00:01:45.800Z,994.57
2019-03-04T00:02:45.778Z,994.49
2019-03-04T00:03:45.754Z,994.5
2019-03-04T00:04:45.732Z,994.41
2019-03-04T00:05:45.717Z,994.28
2019-03-04T00:06:45.695Z,994.37
2019-03-04T00:07:45.675Z,994.36
2019-03-04T00:08:45.652Z,994.38
2019-03-04T00:09:45.634Z,994.34
2019-03-04T00:10:45.609Z,994.39
2019-03-04T00:11:45.592Z,994.41
2019-03-04T00:12:45.568Z,994.4
2019-03-04T00:13:45.547Z,994.32
2019-03-04T00:14:45.526Z,994.27
2019-03-04T00:15:45.509Z,994.16
2019-03-04T00:16:45.490Z,994.2
2019-03-04T00:17:45.464Z,994.13
2019-03-04T00:18:45.443Z,994.13
2019-03-04T00:19:45.427Z,994.15
2019-03-04T00:20:45.407Z,994.09
2019-03-04T00:21:45.381Z,994.02
2019-03-04T00:22:45.363Z,993.95
2019-03-04T00:23:45.341Z,993.88
2019-03-04T00:24:45.323Z,993.82
2019-03-04T00:25:45.299Z,993.81
2019-03-04T00:26:45.283Z,993.67
2019-03-04T00:27:45.259Z,993.68
2019-03-04T00:28:45.246Z,993.57
2019-03-04T00:29:45.220Z,993.53
2019-03-04T00:30:45.201Z,993.47
2019-03-04T00:31:45.185Z,993.47
2019-03-04T00:32:45.259Z,993.47
2019-03-04T00:33:45.138Z,993.3
2019-03-04T00:34:45.118Z,993.32
2019-03-04T00:35:45.094Z,993.26
2019-03-04T00:36:45.071Z,993.24
2019-03-04T00:37:45.057Z,993.2
2019-03-04T00:38:45.035Z,993.19
2019-03-04T00:39:45.014Z,993.23
2019-03-04T00:40:44.989Z,993.17
2019-03-04T00:41:44.973Z,993.23
2019-03-04T00:42:44.949Z,993.17
2019-03-04T00:43:44.933Z,993.15
2019-03-04T00:44:44.908Z,993.08
2019-03-04T00:45:44.888Z,993.1
2019-03-04T00:46:44.866Z,993.03
2019-03-04T00:47:44.848Z,993.06
2019-03-04T00:48:44.831Z,993.08
2019-03-04T00:49:44.830Z,993.17
2019-03-04T00:50:44.784Z,993.21
2019-03-04T00:51:44.768Z,993.18
2019-03-04T00:52:44.747Z,993.17
2019-03-04T00:53:44.722Z,993.15
2019-03-04T00:54:44.702Z,993.15
2019-03-04T00:55:44.680Z,993.21
2019-03-04T00:56:44.666Z,993.05
2019-03-04T00:57:44.639Z,993.15
2019-03-04T00:58:44.623Z,993.17
2019-03-04T00:59:44.598Z,993.21
2019-03-04T01:00:44.582Z,993.29
2019-03-04T01:01:44.565Z,993.41
2019-03-04T01:02:44.541Z,993.35
2019-03-04T01:03:44.518Z,993.3
2019-03-04T01:04:44.495Z,993.2
2019-03-04T01:05:44.478Z,993.22
2019-03-04T01:06:44.458Z,993.14
2019-03-04T01:07:44.434Z,993.13
2019-03-04T01:08:44.411Z,993.09
2019-03-04T01:09:44.396Z,993.15
2019-03-04T01:10:44.377Z,993.15
2019-03-04T01:11:44.356Z,993.12
2019-03-04T01:12:44.330Z,993.17
2019-03-04T01:13:44.315Z,993.14
2019-03-04T01:14:44.292Z,993.09
2019-03-04T01:15:44.272Z,993.01
2019-03-04T01:16:44.249Z,993.06
2019-03-04T01:17:44.228Z,993.07
2019-03-04T01:18:44.208Z,993.11
2019-03-04T01:19:44.193Z,993.05
2019-03-04T01:20:44.170Z,993.07
2019-03-04T01:21:44.145Z,993.05
2019-03-04T01:22:44.127Z,993.13
2019-03-04T01:23:44.107Z,993.1
2019-03-04T01:24:44.088Z,993.12
2019-03-04T01:25:44.075Z,993.06
2019-03-04T01:26:44.041Z,992.98
2019-03-04T01:27:44.021Z,992.84
2019-03-04T01:28:44.005Z,992.74
2019-03-04T01:29:43.980Z,992.75
2019-03-04T01:30:43.963Z,992.69
2019-03-04T01:31:43.939Z,992.57
2019-03-04T01:32:43.923Z,992.47
2019-03-04T01:33:43.903Z,992.53
2019-03-04T01:34:43.881Z,992.34
2019-03-04T01:35:43.856Z,992.49
2019-03-04T01:36:43.835Z,992.46
2019-03-04T01:37:43.819Z,992.42
2019-03-04T01:38:43.797Z,992.52
2019-03-04T01:39:43.774Z,992.53
2019-03-04T01:40:43.753Z,992.47
2019-03-04T01:41:43.739Z,992.46
2019-03-04T01:42:43.716Z,992.4
2019-03-04T01:43:43.695Z,992.24
2019-03-04T01:44:43.673Z,992.02
2019-03-04T01:45:43.655Z,991.88
2019-03-04T01:46:43.629Z,991.98
2019-03-04T01:47:43.613Z,992.03
2019-03-04T01:48:43.587Z,992.11
2019-03-04T01:49:43.615Z,992.05
2019-03-04T01:50:43.551Z,992
2019-03-04T01:51:43.531Z,992.04
2019-03-04T01:52:43.510Z,992.04
2019-03-04T01:53:43.484Z,991.92
2019-03-04T01:54:43.465Z,991.74
2019-03-04T01:55:43.457Z,991.87
2019-03-04T01:56:43.427Z,991.97
2019-03-04T01:57:43.402Z,991.96
2019-03-04T01:58:43.398Z,991.85
2019-03-04T01:59:43.360Z,991.84
2019-03-04T02:00:43.346Z,991.81
2019-03-04T02:01:43.320Z,991.8
2019-03-04T02:02:43.307Z,991.86
2019-03-04T02:03:43.279Z,991.82
2019-03-04T02:04:43.259Z,991.69
2019-03-04T02:05:43.240Z,991.55
2019-03-04T02:06:43.227Z,991.55
2019-03-04T02:07:43.204Z,991.69
2019-03-04T02:08:43.181Z,991.47
2019-03-04T02:09:43.155Z,991.41
2019-03-04T02:10:43.133Z,991.45
2019-03-04T02:11:43.123Z,991.41
2019-03-04T02:12:43.100Z,991.29
2019-03-04T02:13:43.078Z,991.26
2019-03-04T02:14:43.053Z,991.27
2019-03-04T02:15:43.031Z,991.18
2019-03-04T02:16:43.015Z,991.13
2019-03-04T02:17:42.992Z,991.01
2019-03-04T02:18:42.986Z,990.92
2019-03-04T02:19:42.950Z,990.85
2019-03-04T02:20:42.939Z,990.8
2019-03-04T02:21:42.917Z,990.58
2019-03-04T02:22:42.895Z,990.43
2019-03-04T02:23:42.869Z,990.37
2019-03-04T02:24:42.847Z,990.3
2019-03-04T02:25:42.833Z,990.43
2019-03-04T02:26:42.810Z,990.41
2019-03-04T02:27:42.786Z,990.48
2019-03-04T02:28:42.765Z,990.45
2019-03-04T02:29:42.748Z,990.5
2019-03-04T02:30:42.732Z,990.5
2019-03-04T02:31:42.711Z,990.6
2019-03-04T02:32:42.685Z,990.54
2019-03-04T02:33:42.667Z,990.53
2019-03-04T02:34:42.643Z,990.44
2019-03-04T02:35:42.630Z,990.4
2019-03-04T02:36:42.602Z,990.36
2019-03-04T02:37:42.581Z,990.27
2019-03-04T02:38:42.562Z,990.32
2019-03-04T02:39:42.541Z,990.28
2019-03-04T02:40:42.528Z,990.3
2019-03-04T02:41:42.498Z,990.33
2019-03-04T02:42:42.478Z,990.22
2019-03-04T02:43:42.463Z,990.2
2019-03-04T02:44:42.446Z,990.23
2019-03-04T02:45:42.419Z,990.16
2019-03-04T02:46:42.394Z,990.1
2019-03-04T02:47:42.389Z,990.12
2019-03-04T02:48:42.363Z,990
2019-03-04T02:49:42.339Z,989.91
2019-03-04T02:50:42.331Z,989.91
2019-03-04T02:51:42.290Z,989.92
2019-03-04T02:52:42.285Z,989.83
2019-03-04T02:53:42.263Z,989.84
2019-03-04T02:54:42.236Z,989.81
2019-03-04T02:55:42.210Z,989.75
2019-03-04T02:56:42.199Z,989.78
2019-03-04T02:57:42.172Z,989.73
2019-03-04T02:58:42.156Z,989.69
2019-03-04T02:59:42.126Z,989.7
2019-03-04T03:00:42.108Z,989.62
2019-03-04T03:01:42.103Z,989.53
2019-03-04T03:02:42.076Z,989.51
2019-03-04T03:03:42.059Z,989.59
2019-03-04T03:04:42.025Z,989.62
2019-03-04T03:05:42.008Z,989.55
2019-03-04T03:06:41.991Z,989.49
2019-03-04T03:07:41.985Z,989.52
2019-03-04T03:08:41.947Z,989.5
2019-03-04T03:09:41.923Z,989.44
2019-03-04T03:10:41.903Z,989.31
2019-03-04T03:11:41.887Z,989.31
2019-03-04T03:12:41.880Z,989.34
2019-03-04T03:13:41.849Z,989.3
2019-03-04T03:14:41.820Z,989.21
2019-03-04T03:15:41.805Z,989.21
2019-03-04T03:16:41.797Z,989.07
2019-03-04T03:17:41.774Z,989.01
2019-03-04T03:18:41.737Z,988.85
2019-03-04T03:19:41.720Z,988.65
2019-03-04T03:20:41.701Z,988.76
2019-03-04T03:21:41.681Z,988.55
2019-03-04T03:22:41.677Z,988.62
2019-03-04T03:23:41.638Z,988.6
2019-03-04T03:24:41.615Z,988.53
2019-03-04T03:25:41.596Z,988.32
2019-03-04T03:26:41.576Z,988.22
2019-03-04T03:27:41.551Z,988.22
2019-03-04T03:28:41.534Z,988.23
2019-03-04T03:29:41.517Z,988.13
2019-03-04T03:30:41.504Z,988.04
2019-03-04T03:31:41.477Z,987.94
2019-03-04T03:32:41.465Z,987.99
2019-03-04T03:33:41.439Z,987.84
2019-03-04T03:34:41.415Z,987.73
2019-03-04T03:35:41.402Z,987.97
2019-03-04T03:36:41.379Z,988.15
2019-03-04T03:37:41.348Z,988.37
2019-03-04T03:38:41.330Z,988.3
2019-03-04T03:39:41.307Z,988.44
2019-03-04T03:40:41.283Z,988.55
2019-03-04T03:41:41.263Z,988.46
2019-03-04T03:42:41.250Z,988.23
2019-03-04T03:43:41.224Z,988.01
2019-03-04T03:44:41.213Z,987.98
2019-03-04T03:45:41.181Z,987.94
2019-03-04T03:46:41.164Z,987.96
2019-03-04T03:47:41.143Z,988.05
2019-03-04T03:48:41.126Z,987.87
2019-03-04T03:49:41.103Z,987.91
2019-03-04T03:50:41.081Z,988.21
2019-03-04T03:51:41.061Z,988.16
2019-03-04T03:52:41.036Z,988.29
2019-03-04T03:53:41.066Z,988.15
2019-03-04T03:54:41.000Z,988.21
2019-03-04T03:55:40.980Z,988.06
2019-03-04T03:56:40.957Z,988.12
2019-03-04T03:57:40.934Z,988.08
2019-03-04T03:58:40.930Z,988.06
2019-03-04T03:59:40.952Z,987.95
2019-03-04T04:00:40.877Z,987.94
2019-03-04T04:01:40.857Z,987.71
2019-03-04T04:02:40.844Z,988.05
2019-03-04T04:03:40.816Z,987.91
2019-03-04T04:04:40.795Z,988
2019-03-04T04:05:40.769Z,987.9
2019-03-04T04:06:40.752Z,987.81
2019-03-04T04:07:40.729Z,987.83
2019-03-04T04:08:40.715Z,987.84
2019-03-04T04:09:40.688Z,987.7
2019-03-04T04:10:40.671Z,987.59
2019-03-04T04:11:40.647Z,987.49
2019-03-04T04:12:40.630Z,987.42
2019-03-04T04:13:40.612Z,987.1
2019-03-04T04:14:40.588Z,986.94
2019-03-04T04:15:40.563Z,987.06
2019-03-04T04:16:40.544Z,987.07
2019-03-04T04:17:40.527Z,986.72
2019-03-04T04:18:40.505Z,986.93
2019-03-04T04:19:40.485Z,987.06
2019-03-04T04:20:40.462Z,987.2
2019-03-04T04:21:40.461Z,987.08
2019-03-04T04:22:40.429Z,987.21
2019-03-04T04:23:40.406Z,987.18
2019-03-04T04:24:40.378Z,987.11
2019-03-04T04:25:40.362Z,987.18
2019-03-04T04:26:40.342Z,987.16
2019-03-04T04:27:40.326Z,987.12
2019-03-04T04:28:40.297Z,987.07
2019-03-04T04:29:40.288Z,987.17
2019-03-04T04:30:40.254Z,987.1
2019-03-04T04:31:40.239Z,987.23
2019-03-04T04:32:40.266Z,987.15
2019-03-04T04:33:40.193Z,987.21
2019-03-04T04:34:40.182Z,987.2
2019-03-04T04:35:40.163Z,987.21
2019-03-04T04:36:40.136Z,987.28
2019-03-04T04:37:40.112Z,987.23
2019-03-04T04:38:40.096Z,987.25
2019-03-04T04:39:40.070Z,987.22
2019-03-04T04:40:40.054Z,987.23
2019-03-04T04:41:40.033Z,987.26
2019-03-04T04:42:40.015Z,987.27
2019-03-04T04:43:39.988Z,987.15
2019-03-04T04:44:39.971Z,987.15
2019-03-04T04:45:39.951Z,987.17
2019-03-04T04:46:39.931Z,987.13
2019-03-04T04:47:39.905Z,987.17
2019-03-04T04:48:39.883Z,987.24
2019-03-04T04:49:39.869Z,987.17
2019-03-04T04:50:39.849Z,987.12
2019-03-04T04:51:39.823Z,987.03
2019-03-04T04:52:39.802Z,986.97
2019-03-04T04:53:39.787Z,986.94
2019-03-04T04:54:39.766Z,986.92
2019-03-04T04:55:39.745Z,987.02
2019-03-04T04:56:39.722Z,986.97
2019-03-04T04:57:39.706Z,986.94
2019-03-04T04:58:39.701Z,986.96
2019-03-04T04:59:39.664Z,986.85
2019-03-04T05:00:39.639Z,986.83
2019-03-04T05:01:39.619Z,986.77
2019-03-04T05:02:39.597Z,986.64
2019-03-04T05:03:39.581Z,986.68
2019-03-04T05:04:39.561Z,986.71
2019-03-04T05:05:39.536Z,986.67
2019-03-04T05:06:39.514Z,986.64
2019-03-04T05:07:39.501Z,986.67
2019-03-04T05:08:39.479Z,986.54
2019-03-04T05:09:39.454Z,986.44
2019-03-04T05:10:39.433Z,986.47
2019-03-04T05:11:39.412Z,986.5
2019-03-04T05:12:39.401Z,986.78
2019-03-04T05:13:39.371Z,986.59
2019-03-04T05:14:39.356Z,986.59
2019-03-04T05:15:39.331Z,986.68
2019-03-04T05:16:39.315Z,986.62
2019-03-04T05:17:39.857Z,986.78
2019-03-04T05:18:39.273Z,986.57
2019-03-04T05:19:39.249Z,986.58
2019-03-04T05:20:39.227Z,986.71
2019-03-04T05:21:39.212Z,986.53
2019-03-04T05:22:39.194Z,986.39
2019-03-04T05:23:39.167Z,986.36
2019-03-04T05:24:39.145Z,986.25
2019-03-04T05:25:39.129Z,986.26
2019-03-04T05:26:39.109Z,986.3
2019-03-04T05:27:39.089Z,986.21
2019-03-04T05:28:39.069Z,986.35
2019-03-04T05:29:39.058Z,986.26
2019-03-04T05:30:39.028Z,986.32
2019-03-04T05:31:39.003Z,986.24
2019-03-04T05:32:38.987Z,986.24
2019-03-04T05:33:38.966Z,986.35
2019-03-04T05:34:38.946Z,986.32
2019-03-04T05:35:38.920Z,986.25
2019-03-04T05:36:38.899Z,986.04
2019-03-04T05:37:38.886Z,986.14
2019-03-04T05:38:38.864Z,986.2
2019-03-04T05:39:38.838Z,986.18
2019-03-04T05:40:38.817Z,986.14
2019-03-04T05:41:38.803Z,986.03
2019-03-04T05:42:38.780Z,985.98
2019-03-04T05:43:38.760Z,985.9
2019-03-04T05:44:38.737Z,986.04
2019-03-04T05:45:38.720Z,985.95
2019-03-04T05:46:38.695Z,986.01
2019-03-04T05:47:38.679Z,985.84
2019-03-04T05:48:38.654Z,985.82
2019-03-04T05:49:38.733Z,985.84
2019-03-04T05:50:38.611Z,985.95
2019-03-04T05:51:38.596Z,985.89
2019-03-04T05:52:38.576Z,985.84
2019-03-04T05:53:38.550Z,985.74
2019-03-04T05:54:38.530Z,985.63
2019-03-04T05:55:38.514Z,985.59
2019-03-04T05:56:38.498Z,985.49
2019-03-04T05:57:38.467Z,985.55
2019-03-04T05:58:38.448Z,985.48
2019-03-04T05:59:38.429Z,985.99
2019-03-04T06:00:38.411Z,987.33
2019-03-04T06:01:38.386Z,988.12
2019-03-04T06:02:38.370Z,988.27
2019-03-04T06:03:38.344Z,988.23
2019-03-04T06:04:38.351Z,988.01
2019-03-04T06:05:38.308Z,988.13
2019-03-04T06:06:38.290Z,988.07
2019-03-04T06:07:38.264Z,988.04
2019-03-04T06:08:38.242Z,988.02
2019-03-04T06:09:38.252Z,988.03
2019-03-04T06:10:38.211Z,988.13
2019-03-04T06:11:38.181Z,988.12
2019-03-04T06:12:38.160Z,988.31
2019-03-04T06:13:38.144Z,988.35
2019-03-04T06:14:38.123Z,988.24
2019-03-04T06:15:38.103Z,988.16
2019-03-04T06:16:46.946Z,988.12
2019-03-04T06:17:38.063Z,988.12
2019-03-04T06:18:38.037Z,988.26
2019-03-04T06:19:38.021Z,988.28
2019-03-04T06:20:37.999Z,988.12
2019-03-04T06:21:37.976Z,988.14
2019-03-04T06:22:37.955Z,988.09
2019-03-04T06:23:37.939Z,988.05
2019-03-04T06:24:37.918Z,988.16
2019-03-04T06:25:37.893Z,988.02
2019-03-04T06:26:37.873Z,988.06
2019-03-04T06:27:37.857Z,988.09
2019-03-04T06:28:37.837Z,988.17
2019-03-04T06:29:37.812Z,988.06
2019-03-04T06:30:37.789Z,988.15
2019-03-04T06:31:37.771Z,988.07
2019-03-04T06:32:37.754Z,987.9
2019-03-04T06:33:37.729Z,987.71
2019-03-04T06:34:37.713Z,987.57
2019-03-04T06:35:37.688Z,987.53
2019-03-04T06:36:37.673Z,987.56
2019-03-04T06:37:37.650Z,987.64
2019-03-04T06:38:37.630Z,987.6
2019-03-04T06:39:37.606Z,987.67
2019-03-04T06:40:37.585Z,987.77
2019-03-04T06:41:37.568Z,987.42
2019-03-04T06:42:37.548Z,987.06
2019-03-04T06:43:37.524Z,987.16
2019-03-04T06:44:37.502Z,987.12
2019-03-04T06:45:37.486Z,986.97
2019-03-04T06:46:37.466Z,986.84
2019-03-04T06:47:37.446Z,986.95
2019-03-04T06:48:37.420Z,986.9
2019-03-04T06:49:37.404Z,986.89
2019-03-04T06:50:37.379Z,986.86
2019-03-04T06:51:37.364Z,986.86
2019-03-04T06:52:37.337Z,986.77
2019-03-04T06:53:37.322Z,987.05
2019-03-04T06:54:37.297Z,986.86
2019-03-04T06:55:37.280Z,986.9
2019-03-04T06:56:37.259Z,986.95
2019-03-04T06:57:37.234Z,987
2019-03-04T06:58:37.213Z,986.95
2019-03-04T06:59:37.197Z,986.99
2019-03-04T07:00:37.177Z,986.99
2019-03-04T07:01:37.152Z,986.98
2019-03-04T07:02:37.133Z,986.98
2019-03-04T07:03:37.111Z,986.98
2019-03-04T07:04:37.096Z,986.92
2019-03-04T07:05:37.070Z,986.97
2019-03-04T07:06:37.053Z,987
2019-03-04T07:07:37.029Z,986.98
2019-03-04T07:08:37.013Z,986.99
2019-03-04T07:09:36.992Z,986.97
2019-03-04T07:10:36.971Z,987
2019-03-04T07:11:36.947Z,987.04
2019-03-04T07:12:36.926Z,987.06
2019-03-04T07:13:36.909Z,987.06
2019-03-04T07:14:36.888Z,987.13
2019-03-04T07:15:36.862Z,987.02
2019-03-04T07:16:36.842Z,987.07
2019-03-04T07:17:36.825Z,987.14
2019-03-04T07:18:36.805Z,987.04
2019-03-04T07:19:36.785Z,987.13
2019-03-04T07:20:36.759Z,986.99
2019-03-04T07:21:36.742Z,987.02
2019-03-04T07:22:36.717Z,987.03
2019-03-04T07:23:36.701Z,987.04
2019-03-04T07:24:36.676Z,987
2019-03-04T07:25:36.656Z,987
2019-03-04T07:26:36.634Z,986.98
2019-03-04T07:27:36.619Z,987.02
2019-03-04T07:28:36.597Z,987.02
2019-03-04T07:29:36.572Z,987.06
2019-03-04T07:30:36.552Z,987.03
2019-03-04T07:31:36.535Z,987.09
2019-03-04T07:32:36.515Z,986.97
2019-03-04T07:33:36.491Z,986.99
2019-03-04T07:34:36.468Z,987.05
2019-03-04T07:35:36.447Z,987
2019-03-04T07:36:36.432Z,986.95
2019-03-04T07:37:36.413Z,987.05
2019-03-04T07:38:36.393Z,986.97
2019-03-04T07:39:36.364Z,986.94
2019-03-04T07:40:36.348Z,987.01
2019-03-04T07:41:36.331Z,987.04
2019-03-04T07:42:36.307Z,987.16
2019-03-04T07:43:36.282Z,987.13
2019-03-04T07:44:36.261Z,987.13
2019-03-04T07:45:36.245Z,987.12
2019-03-04T07:46:36.223Z,987.15
2019-03-04T07:47:36.199Z,987.03
2019-03-04T07:48:36.178Z,987.14
2019-03-04T07:49:36.162Z,987.09
2019-03-04T07:50:36.140Z,987.17
2019-03-04T07:51:36.121Z,987.16
2019-03-04T07:52:36.099Z,987.23
2019-03-04T07:53:45.754Z,987.22
2019-03-04T07:54:36.053Z,987.34
2019-03-04T07:55:36.037Z,987.33
2019-03-04T07:56:36.013Z,987.31
2019-03-04T07:57:35.990Z,987.28
2019-03-04T07:58:35.970Z,987.35
2019-03-04T07:59:35.954Z,987.3
2019-03-04T08:00:35.934Z,987.27
2019-03-04T08:01:35.908Z,987.35
2019-03-04T08:02:35.892Z,987.4
2019-03-04T08:03:35.872Z,987.27
2019-03-04T08:04:35.851Z,987.15
2019-03-04T08:05:35.825Z,987.29
2019-03-04T08:06:35.808Z,987.29
2019-03-04T08:07:35.783Z,987.37
2019-03-04T08:08:35.767Z,987.48
2019-03-04T08:09:35.743Z,987.37
2019-03-04T08:10:35.726Z,987.44
2019-03-04T08:11:35.702Z,987.37
2019-03-04T08:12:35.684Z,987.33
2019-03-04T08:13:35.665Z,987.42
2019-03-04T08:14:35.643Z,987.48
2019-03-04T08:15:35.683Z,987.44
2019-03-04T08:16:36.276Z,987.51
2019-03-04T08:17:35.580Z,987.46
2019-03-04T08:18:35.561Z,987.41
2019-03-04T08:19:35.535Z,987.61
2019-03-04T08:20:35.513Z,987.34
2019-03-04T08:21:35.504Z,987.48
2019-03-04T08:22:35.492Z,987.52
2019-03-04T08:23:35.466Z,987.44
2019-03-04T08:24:35.446Z,987.3
2019-03-04T08:25:35.425Z,987.43
2019-03-04T08:26:35.392Z,987.58
2019-03-04T08:27:35.379Z,987.59
2019-03-04T08:28:35.348Z,987.68
2019-03-04T08:29:35.366Z,987.79
2019-03-04T08:30:35.305Z,987.5
2019-03-04T08:31:35.291Z,987.61
2019-03-04T08:32:35.271Z,987.65
2019-03-04T08:33:35.250Z,987.61
2019-03-04T08:34:35.223Z,987.64
2019-03-04T08:35:35.257Z,987.56
2019-03-04T08:36:35.222Z,987.71
2019-03-04T08:37:35.162Z,987.66
2019-03-04T08:38:35.141Z,987.65
2019-03-04T08:39:35.123Z,987.63
2019-03-04T08:40:35.107Z,987.71
2019-03-04T08:41:35.079Z,987.63
2019-03-04T08:42:35.063Z,987.67
2019-03-04T08:43:35.043Z,987.63
2019-03-04T08:44:35.023Z,987.71
2019-03-04T08:45:35.005Z,987.7
2019-03-04T08:46:34.984Z,987.69
2019-03-04T08:47:34.956Z,987.81
2019-03-04T08:48:34.935Z,987.73
2019-03-04T08:49:34.918Z,987.71
2019-03-04T08:50:34.899Z,987.69
2019-03-04T08:51:34.873Z,987.63
2019-03-04T08:52:34.851Z,987.65
2019-03-04T08:53:34.831Z,987.59
2019-03-04T08:54:34.810Z,987.54
2019-03-04T08:55:34.792Z,987.63
2019-03-04T08:56:34.775Z,987.64
2019-03-04T08:57:34.748Z,987.61
2019-03-04T08:58:34.732Z,987.65
2019-03-04T08:59:34.710Z,987.63
2019-03-04T09:00:34.690Z,987.66
2019-03-04T09:01:34.670Z,987.71
2019-03-04T09:02:34.649Z,987.68
2019-03-04T09:03:34.625Z,987.89
2019-03-04T09:04:34.603Z,987.69
2019-03-04T09:05:34.587Z,987.79
2019-03-04T09:06:34.568Z,987.56
2019-03-04T09:07:34.541Z,987.61
2019-03-04T09:08:34.521Z,987.73
2019-03-04T09:09:34.505Z,987.72
2019-03-04T09:10:34.483Z,987.87
2019-03-04T09:11:34.463Z,987.77
2019-03-04T09:12:35.950Z,987.68
2019-03-04T09:13:34.423Z,987.74
2019-03-04T09:14:34.399Z,987.7
2019-03-04T09:15:34.381Z,987.63
2019-03-04T09:16:34.356Z,987.67
2019-03-04T09:17:34.335Z,987.71
2019-03-04T09:18:34.314Z,987.65
2019-03-04T09:19:34.297Z,987.76
2019-03-04T09:20:34.278Z,987.63
2019-03-04T09:21:34.252Z,987.7
2019-03-04T09:22:34.232Z,987.67
2019-03-04T09:23:34.216Z,987.66
2019-03-04T09:24:34.195Z,987.62
2019-03-04T09:25:34.169Z,987.54
2019-03-04T09:26:34.148Z,987.59
2019-03-04T09:27:34.131Z,987.59
2019-03-04T09:28:34.112Z,987.61
2019-03-04T09:29:34.086Z,987.55
2019-03-04T09:30:34.071Z,987.58
2019-03-04T09:31:34.046Z,987.65
2019-03-04T09:32:34.031Z,987.66
2019-03-04T09:33:34.008Z,987.73
2019-03-04T09:34:33.990Z,987.68
2019-03-04T09:35:33.964Z,987.65
2019-03-04T09:36:33.941Z,987.63
2019-03-04T09:37:33.926Z,987.6
2019-03-04T09:38:33.905Z,987.69
2019-03-04T09:39:33.881Z,987.73
2019-03-04T09:40:33.860Z,987.64
2019-03-04T09:41:33.844Z,987.65
2019-03-04T09:42:33.925Z,987.68
2019-03-04T09:43:33.802Z,987.68
2019-03-04T09:44:33.778Z,987.68
2019-03-04T09:45:38.573Z,987.59
2019-03-04T09:46:33.737Z,987.57
2019-03-04T09:47:33.720Z,987.66
2019-03-04T09:48:33.695Z,987.72
2019-03-04T09:49:33.676Z,987.74
2019-03-04T09:50:33.661Z,987.71
2019-03-04T09:51:33.637Z,987.62
2019-03-04T09:52:33.616Z,987.61
2019-03-04T09:53:39.270Z,987.41
2019-03-04T09:54:33.571Z,987.69
2019-03-04T09:55:33.555Z,987.59
2019-03-04T09:56:33.534Z,987.7
2019-03-04T09:57:33.510Z,987.58
2019-03-04T09:58:33.488Z,987.56
2019-03-04T09:59:33.467Z,987.52
2019-03-04T10:00:33.453Z,987.64
2019-03-04T10:01:33.429Z,987.58
2019-03-04T10:02:33.410Z,987.58
2019-03-04T10:03:33.386Z,987.6
2019-03-04T10:04:33.369Z,987.7
2019-03-04T10:05:33.349Z,987.52
2019-03-04T10:06:33.328Z,987.52
2019-03-04T10:07:33.303Z,987.52
2019-03-04T10:08:33.284Z,987.39
2019-03-04T10:09:33.267Z,987.5
2019-03-04T10:10:33.248Z,987.45
2019-03-04T10:11:33.221Z,987.37
2019-03-04T10:12:33.203Z,987.39
2019-03-04T10:13:33.186Z,987.46
2019-03-04T10:14:33.164Z,987.44
2019-03-04T10:15:33.146Z,987.48
2019-03-04T10:16:33.179Z,987.4
2019-03-04T10:17:33.104Z,987.34
2019-03-04T10:18:33.077Z,987.34
2019-03-04T10:19:33.061Z,987.42
2019-03-04T10:20:33.035Z,987.55
2019-03-04T10:21:33.019Z,987.4
2019-03-04T10:22:32.994Z,987.38
2019-03-04T10:23:32.977Z,987.41
2019-03-04T10:24:32.957Z,987.19
2019-03-04T10:25:32.932Z,987.33
2019-03-04T10:26:32.912Z,987.34
2019-03-04T10:27:32.895Z,987.33
2019-03-04T10:28:32.874Z,987.3
2019-03-04T10:29:32.850Z,987.41
2019-03-04T10:30:32.831Z,987.42
2019-03-04T10:31:32.809Z,987.31
2019-03-04T10:32:32.795Z,987.32
2019-03-04T10:33:32.769Z,987.37
2019-03-04T10:34:32.750Z,987.44
2019-03-04T10:35:32.726Z,987.41
2019-03-04T10:36:32.710Z,987.35
2019-03-04T10:37:32.690Z,987.37
2019-03-04T10:38:32.668Z,987.41
2019-03-04T10:39:32.643Z,987.39
2019-03-04T10:40:32.622Z,987.39
2019-03-04T10:41:32.607Z,987.27
2019-03-04T10:42:32.586Z,987.26
2019-03-04T10:43:32.561Z,987.35
2019-03-04T10:44:33.315Z,987.37
2019-03-04T10:45:32.524Z,987.28
2019-03-04T10:46:32.504Z,987.53
2019-03-04T10:47:32.482Z,987.3
2019-03-04T10:48:32.463Z,987.33
2019-03-04T10:49:32.458Z,987.5
2019-03-04T10:50:32.416Z,987.53
2019-03-04T10:51:32.401Z,987.34
2019-03-04T10:52:32.375Z,987.37
2019-03-04T10:53:32.354Z,987.39
2019-03-04T10:54:32.333Z,987.37
2019-03-04T10:55:41.401Z,987.3
2019-03-04T10:56:32.295Z,987.33
2019-03-04T10:57:32.273Z,987.31
2019-03-04T10:58:32.254Z,987.27
2019-03-04T10:59:32.235Z,987.38
2019-03-04T11:00:32.214Z,987.27
2019-03-04T11:01:32.188Z,987.28
2019-03-04T11:02:32.171Z,987.25
2019-03-04T11:03:32.149Z,987.48
2019-03-04T11:04:32.132Z,987.48
2019-03-04T11:05:32.108Z,987.62
2019-03-04T11:06:32.090Z,987.77
2019-03-04T11:07:32.065Z,987.95
2019-03-04T11:08:32.049Z,988.22
2019-03-04T11:09:32.028Z,988.34
2019-03-04T11:10:32.008Z,988.49
2019-03-04T11:11:31.982Z,988.58
2019-03-04T11:12:31.962Z,988.61
2019-03-04T11:13:31.947Z,988.6
2019-03-04T11:14:31.928Z,988.75
2019-03-04T11:15:31.899Z,988.82
2019-03-04T11:16:31.880Z,988.79
2019-03-04T11:17:31.864Z,988.8
2019-03-04T11:18:31.842Z,988.84
2019-03-04T11:19:31.822Z,988.74
2019-03-04T11:20:31.796Z,988.68
2019-03-04T11:21:31.781Z,988.68
2019-03-04T11:22:31.756Z,988.74
2019-03-04T11:23:31.740Z,988.79
2019-03-04T11:24:31.715Z,988.8
2019-03-04T11:25:31.694Z,988.76
2019-03-04T11:26:31.674Z,988.78
2019-03-04T11:27:31.657Z,988.79
2019-03-04T11:28:31.636Z,988.69
2019-03-04T11:29:31.611Z,988.84
2019-03-04T11:30:31.590Z,988.85
2019-03-04T11:31:31.579Z,988.86
2019-03-04T11:32:31.564Z,988.82
2019-03-04T11:33:31.528Z,988.95
2019-03-04T11:34:31.509Z,988.98
2019-03-04T11:35:31.488Z,989.05
2019-03-04T11:36:31.471Z,989.07
2019-03-04T11:37:31.446Z,989.1
2019-03-04T11:38:31.429Z,989.18
2019-03-04T11:39:31.405Z,989.17
2019-03-04T11:40:31.388Z,989.19
2019-03-04T11:41:31.368Z,989.18
2019-03-04T11:42:31.347Z,989.16
2019-03-04T11:43:31.323Z,989.23
2019-03-04T11:44:31.304Z,989.14
2019-03-04T11:45:31.286Z,989.25
2019-03-04T11:46:31.264Z,989.31
2019-03-04T11:47:31.239Z,989.28
2019-03-04T11:48:31.219Z,989.29
2019-03-04T11:49:31.203Z,989.27
2019-03-04T11:50:31.183Z,989.38
2019-03-04T11:51:31.167Z,989.34
2019-03-04T11:52:31.136Z,989.35
2019-03-04T11:53:31.122Z,989.39
2019-03-04T11:54:31.095Z,989.42
2019-03-04T11:55:31.079Z,989.41
2019-03-04T11:56:31.054Z,989.45
2019-03-04T11:57:31.034Z,989.5
2019-03-04T11:58:31.013Z,989.52
2019-03-04T11:59:30.998Z,989.6
2019-03-04T12:00:30.976Z,989.54
2019-03-04T12:01:30.951Z,989.66
2019-03-04T12:02:38.482Z,989.63
2019-03-04T12:03:30.914Z,989.72
2019-03-04T12:04:30.893Z,989.7
2019-03-04T12:05:30.868Z,989.73
2019-03-04T12:06:30.847Z,989.75
2019-03-04T12:07:30.826Z,989.8
2019-03-04T12:08:30.810Z,989.79
2019-03-04T12:09:30.787Z,989.76
2019-03-04T12:10:30.769Z,989.86
2019-03-04T12:11:37.890Z,989.82
2019-03-04T12:12:30.729Z,989.92
2019-03-04T12:13:30.706Z,989.94
2019-03-04T12:14:30.686Z,989.94
2019-03-04T12:15:30.663Z,990.03
2019-03-04T12:16:30.641Z,990.07
2019-03-04T12:17:30.623Z,990.1
2019-03-04T12:18:30.599Z,990.11
2019-03-04T12:19:30.583Z,990.12
2019-03-04T12:20:30.567Z,990.16
2019-03-04T12:21:30.539Z,990.24
2019-03-04T12:22:30.515Z,990.24
2019-03-04T12:23:30.495Z,990.27
2019-03-04T12:24:30.477Z,990.35
2019-03-04T12:25:30.453Z,990.26
2019-03-04T12:26:30.437Z,990.28
2019-03-04T12:27:30.413Z,990.38
2019-03-04T12:28:30.399Z,990.52
2019-03-04T12:29:30.375Z,990.45
2019-03-04T12:30:30.353Z,990.55
2019-03-04T12:31:30.329Z,990.52